sensor_id;sensor_type;location;lat;lon;timestamp;P1;durP1;ratioP1;P2;durP2;ratioP2
76119;SDS011;64852;48.092;-1.640;2023-11-21T11:42:36;20.48;;;19.08;;
76119;SDS011;64852;48.092;-1.640;2023-11-21T11:45:01;22.65;;;21.15;;
76119;SDS011;64852;48.092;-1.640;2023-11-21T11:50:10;22.42;;;20.92;;
76119;SDS011;64852;48.092;-1.640;2023-11-21T11:52:46;22.60;;;21.10;;
76119;SDS011;64852;48.092;-1.640;2023-11-21T11:55:17;21.98;;;20.48;;
76119;SDS011;64852;48.092;-1.640;2023-11-21T11:57:45;22.88;;;21.38;;
76119;SDS011;64852;48.092;-1.640;2023-11-21T12:02:54;22.38;;;20.88;;
76119;SDS011;64852;48.092;-1.640;2023-11-21T12:05:25;25.25;;;23.55;;
76119;SDS011;64852;48.092;-1.640;2023-11-21T12:08:00;22.75;;;21.25;;
76119;SDS011;64852;48.092;-1.640;2023-11-21T12:10:28;21.30;;;19.90;;
76119;SDS011;64852;48.092;-1.640;2023-11-21T12:13:02;20.83;;;19.42;;
76119;SDS011;64852;48.092;-1.640;2023-11-21T12:15:32;23.40;;;21.17;;
76119;SDS011;64852;48.092;-1.640;2023-11-21T12:18:02;20.13;;;18.83;;
76119;SDS011;64852;48.092;-1.640;2023-11-21T12:20:28;19.65;;;18.35;;
76119;SDS011;64852;48.092;-1.640;2023-11-21T12:22:56;21.80;;;20.40;;
76119;SDS011;64852;48.092;-1.640;2023-11-21T12:25:25;21.60;;;20.20;;
76119;SDS011;64852;48.092;-1.640;2023-11-21T12:27:57;21.63;;;20.23;;
76119;SDS011;64852;48.092;-1.640;2023-11-21T12:30:25;21.70;;;20.30;;
76119;SDS011;64852;48.092;-1.640;2023-11-21T12:32:55;22.17;;;20.77;;
76119;SDS011;64852;48.092;-1.640;2023-11-21T12:35:27;22.38;;;20.98;;
76119;SDS011;64852;48.092;-1.640;2023-11-21T12:37:55;22.55;;;21.15;;
76119;SDS011;64852;48.092;-1.640;2023-11-21T12:40:22;21.90;;;20.50;;
76119;SDS011;64852;48.092;-1.640;2023-11-21T12:42:52;21.10;;;19.70;;
76119;SDS011;64852;48.092;-1.640;2023-11-21T12:45:20;20.73;;;19.42;;
76119;SDS011;64852;48.092;-1.640;2023-11-21T12:48:00;22.77;;;21.38;;
76119;SDS011;64852;48.092;-1.640;2023-11-21T12:50:29;20.70;;;19.40;;
76119;SDS011;64852;48.092;-1.640;2023-11-21T12:52:59;20.20;;;18.90;;
76119;SDS011;64852;48.092;-1.640;2023-11-21T12:55:33;20.17;;;18.80;;
76119;SDS011;64852;48.092;-1.640;2023-11-21T12:58:05;20.35;;;19.05;;
76119;SDS011;64852;48.092;-1.640;2023-11-21T13:00:35;21.83;;;20.42;;
76119;SDS011;64852;48.092;-1.640;2023-11-21T13:03:03;21.20;;;19.80;;
76119;SDS011;64852;48.092;-1.640;2023-11-21T13:05:32;21.67;;;20.27;;
76119;SDS011;64852;48.092;-1.640;2023-11-21T13:08:05;20.73;;;19.42;;
76119;SDS011;64852;48.092;-1.640;2023-11-21T13:10:37;21.65;;;20.25;;
76119;SDS011;64852;48.092;-1.640;2023-11-21T13:13:09;22.00;;;20.60;;
76119;SDS011;64852;48.092;-1.640;2023-11-21T13:15:46;19.92;;;18.67;;
76119;SDS011;64852;48.092;-1.640;2023-11-21T13:18:13;20.40;;;19.10;;
76119;SDS011;64852;48.092;-1.640;2023-11-21T13:20:40;20.37;;;18.93;;
76119;SDS011;64852;48.092;-1.640;2023-11-21T13:23:09;19.30;;;18.10;;
76119;SDS011;64852;48.092;-1.640;2023-11-21T13:25:40;20.08;;;18.88;;
76119;SDS011;64852;48.092;-1.640;2023-11-21T13:28:07;20.10;;;18.90;;
76119;SDS011;64852;48.092;-1.640;2023-11-21T13:30:34;21.45;;;20.15;;
76119;SDS011;64852;48.092;-1.640;2023-11-21T13:33:04;19.90;;;18.70;;
76119;SDS011;64852;48.092;-1.640;2023-11-21T13:35:35;20.90;;;19.60;;
76119;SDS011;64852;48.092;-1.640;2023-11-21T13:38:07;19.85;;;18.65;;
76119;SDS011;64852;48.092;-1.640;2023-11-21T13:40:34;18.42;;;17.33;;
76119;SDS011;64852;48.092;-1.640;2023-11-21T13:43:08;20.15;;;18.85;;
76119;SDS011;64852;48.092;-1.640;2023-11-21T13:45:38;21.10;;;19.80;;
76119;SDS011;64852;48.092;-1.640;2023-11-21T13:48:07;19.77;;;18.58;;
76119;SDS011;64852;48.092;-1.640;2023-11-21T13:50:45;19.73;;;18.52;;
76119;SDS011;64852;48.092;-1.640;2023-11-21T13:53:22;20.55;;;19.30;;
76119;SDS011;64852;48.092;-1.640;2023-11-21T13:55:52;20.10;;;18.90;;
76119;SDS011;64852;48.092;-1.640;2023-11-21T13:58:25;20.30;;;19.10;;
76119;SDS011;64852;48.092;-1.640;2023-11-21T14:01:06;19.55;;;18.35;;
76119;SDS011;64852;48.092;-1.640;2023-11-21T14:03:41;20.23;;;19.02;;
76119;SDS011;64852;48.092;-1.640;2023-11-21T14:06:16;20.80;;;19.60;;
76119;SDS011;64852;48.092;-1.640;2023-11-21T14:08:49;20.50;;;19.30;;
76119;SDS011;64852;48.092;-1.640;2023-11-21T14:11:15;21.45;;;20.15;;
76119;SDS011;64852;48.092;-1.640;2023-11-21T14:13:43;21.17;;;19.88;;
76119;SDS011;64852;48.092;-1.640;2023-11-21T14:16:12;21.25;;;19.95;;
76119;SDS011;64852;48.092;-1.640;2023-11-21T14:21:17;21.67;;;20.38;;
76119;SDS011;64852;48.092;-1.640;2023-11-21T14:23:43;21.45;;;20.15;;
76119;SDS011;64852;48.092;-1.640;2023-11-21T14:26:10;20.42;;;19.23;;
76119;SDS011;64852;48.092;-1.640;2023-11-21T14:28:39;21.30;;;19.67;;
76119;SDS011;64852;48.092;-1.640;2023-11-21T14:31:08;20.42;;;19.13;;
76119;SDS011;64852;48.092;-1.640;2023-11-21T14:33:40;19.70;;;18.60;;
76119;SDS011;64852;48.092;-1.640;2023-11-21T14:36:06;23.60;;;22.20;;
76119;SDS011;64852;48.092;-1.640;2023-11-21T14:38:38;20.40;;;19.20;;
76119;SDS011;64852;48.092;-1.640;2023-11-21T14:41:04;20.23;;;19.02;;
76119;SDS011;64852;48.092;-1.640;2023-11-21T14:43:33;20.65;;;19.30;;
76119;SDS011;64852;48.092;-1.640;2023-11-21T14:46:00;19.83;;;18.60;;
76119;SDS011;64852;48.092;-1.640;2023-11-21T14:48:28;19.80;;;18.70;;
76119;SDS011;64852;48.092;-1.640;2023-11-21T14:51:07;20.20;;;19.00;;
76119;SDS011;64852;48.092;-1.640;2023-11-21T14:53:58;19.50;;;18.40;;
76119;SDS011;64852;48.092;-1.640;2023-11-21T14:56:31;22.58;;;21.27;;
76119;SDS011;64852;48.092;-1.640;2023-11-21T14:58:59;19.42;;;18.33;;
76119;SDS011;64852;48.092;-1.640;2023-11-21T15:01:37;20.63;;;19.42;;
76119;SDS011;64852;48.092;-1.640;2023-11-21T15:04:20;20.45;;;19.25;;
76119;SDS011;64852;48.092;-1.640;2023-11-21T15:07:03;19.67;;;18.58;;
76119;SDS011;64852;48.092;-1.640;2023-11-21T15:09:29;19.88;;;18.77;;
76119;SDS011;64852;48.092;-1.640;2023-11-21T15:12:06;20.80;;;19.60;;
76119;SDS011;64852;48.092;-1.640;2023-11-21T15:14:42;21.02;;;19.80;;
76119;SDS011;64852;48.092;-1.640;2023-11-21T15:17:14;19.95;;;18.75;;
76119;SDS011;64852;48.092;-1.640;2023-11-21T15:19:48;20.70;;;19.50;;
76119;SDS011;64852;48.092;-1.640;2023-11-21T15:22:15;21.60;;;20.30;;
76119;SDS011;64852;48.092;-1.640;2023-11-21T15:24:41;19.63;;;18.52;;
76119;SDS011;64852;48.092;-1.640;2023-11-21T15:27:10;19.35;;;18.25;;
76119;SDS011;64852;48.092;-1.640;2023-11-21T15:29:36;18.10;;;17.10;;
76119;SDS011;64852;48.092;-1.640;2023-11-21T15:32:03;18.25;;;17.25;;
76119;SDS011;64852;48.092;-1.640;2023-11-21T15:34:31;20.40;;;19.15;;
76119;SDS011;64852;48.092;-1.640;2023-11-21T15:36:57;18.48;;;17.48;;
76119;SDS011;64852;48.092;-1.640;2023-11-21T15:39:23;16.75;;;15.85;;
76119;SDS011;64852;48.092;-1.640;2023-11-21T15:41:53;17.42;;;16.42;;
76119;SDS011;64852;48.092;-1.640;2023-11-21T15:44:19;17.58;;;16.58;;
76119;SDS011;64852;48.092;-1.640;2023-11-21T15:46:45;18.07;;;17.07;;
76119;SDS011;64852;48.092;-1.640;2023-11-21T15:49:10;18.33;;;17.33;;
76119;SDS011;64852;48.092;-1.640;2023-11-21T15:51:43;18.10;;;17.10;;
76119;SDS011;64852;48.092;-1.640;2023-11-21T15:54:21;18.45;;;17.42;;
76119;SDS011;64852;48.092;-1.640;2023-11-21T15:56:48;18.02;;;17.02;;
76119;SDS011;64852;48.092;-1.640;2023-11-21T15:59:14;17.90;;;16.90;;
76119;SDS011;64852;48.092;-1.640;2023-11-21T16:01:41;16.75;;;15.85;;
76119;SDS011;64852;48.092;-1.640;2023-11-21T16:04:09;16.75;;;15.85;;
76119;SDS011;64852;48.092;-1.640;2023-11-21T16:06:36;17.13;;;16.13;;
76119;SDS011;64852;48.092;-1.640;2023-11-21T16:09:05;17.60;;;16.60;;
76119;SDS011;64852;48.092;-1.640;2023-11-21T16:11:31;17.50;;;16.50;;
76119;SDS011;64852;48.092;-1.640;2023-11-21T16:13:58;18.45;;;17.45;;
76119;SDS011;64852;48.092;-1.640;2023-11-21T16:16:24;17.95;;;16.95;;
76119;SDS011;64852;48.092;-1.640;2023-11-21T16:18:50;19.20;;;18.10;;
76119;SDS011;64852;48.092;-1.640;2023-11-21T16:21:16;17.73;;;16.73;;
76119;SDS011;64852;48.092;-1.640;2023-11-21T16:23:42;18.05;;;17.05;;
76119;SDS011;64852;48.092;-1.640;2023-11-21T16:26:08;18.10;;;16.98;;
76119;SDS011;64852;48.092;-1.640;2023-11-21T16:28:33;19.03;;;17.93;;
76119;SDS011;64852;48.092;-1.640;2023-11-21T16:30:59;20.00;;;18.63;;
76119;SDS011;64852;48.092;-1.640;2023-11-21T16:33:25;18.40;;;17.30;;
76119;SDS011;64852;48.092;-1.640;2023-11-21T16:35:50;19.10;;;18.00;;
76119;SDS011;64852;48.092;-1.640;2023-11-21T16:38:16;18.85;;;17.75;;
76119;SDS011;64852;48.092;-1.640;2023-11-21T16:40:41;19.03;;;17.93;;
76119;SDS011;64852;48.092;-1.640;2023-11-21T16:43:10;18.77;;;17.67;;
76119;SDS011;64852;48.092;-1.640;2023-11-21T16:45:36;18.73;;;17.63;;
76119;SDS011;64852;48.092;-1.640;2023-11-21T16:48:02;18.63;;;17.52;;
76119;SDS011;64852;48.092;-1.640;2023-11-21T16:50:28;18.27;;;17.17;;
76119;SDS011;64852;48.092;-1.640;2023-11-21T16:52:54;18.33;;;17.23;;
76119;SDS011;64852;48.092;-1.640;2023-11-21T16:55:19;17.60;;;16.60;;
76119;SDS011;64852;48.092;-1.640;2023-11-21T16:57:45;19.75;;;18.13;;
76119;SDS011;64852;48.092;-1.640;2023-11-21T17:00:11;19.37;;;18.20;;
76119;SDS011;64852;48.092;-1.640;2023-11-21T17:02:37;18.25;;;17.17;;
76119;SDS011;64852;48.092;-1.640;2023-11-21T17:05:04;18.13;;;17.02;;
76119;SDS011;64852;48.092;-1.640;2023-11-21T17:07:30;18.27;;;17.17;;
76119;SDS011;64852;48.092;-1.640;2023-11-21T17:09:57;18.08;;;17.08;;
76119;SDS011;64852;48.092;-1.640;2023-11-21T17:12:23;19.48;;;18.38;;
76119;SDS011;64852;48.092;-1.640;2023-11-21T17:14:50;18.20;;;17.10;;
76119;SDS011;64852;48.092;-1.640;2023-11-21T17:17:15;17.87;;;16.87;;
76119;SDS011;64852;48.092;-1.640;2023-11-21T17:19:41;17.55;;;16.55;;
76119;SDS011;64852;48.092;-1.640;2023-11-21T17:22:08;18.00;;;17.00;;
76119;SDS011;64852;48.092;-1.640;2023-11-21T17:24:33;26.80;;;18.15;;
76119;SDS011;64852;48.092;-1.640;2023-11-21T17:27:01;18.20;;;17.15;;
76119;SDS011;64852;48.092;-1.640;2023-11-21T17:29:27;19.20;;;18.10;;
76119;SDS011;64852;48.092;-1.640;2023-11-21T17:31:53;18.80;;;17.70;;
76119;SDS011;64852;48.092;-1.640;2023-11-21T17:34:19;18.63;;;17.53;;
76119;SDS011;64852;48.092;-1.640;2023-11-21T17:36:45;19.02;;;17.92;;
76119;SDS011;64852;48.092;-1.640;2023-11-21T17:39:11;17.77;;;16.77;;
76119;SDS011;64852;48.092;-1.640;2023-11-21T17:41:37;18.58;;;17.48;;
76119;SDS011;64852;48.092;-1.640;2023-11-21T17:44:03;18.40;;;17.40;;
76119;SDS011;64852;48.092;-1.640;2023-11-21T17:46:28;18.00;;;17.00;;
76119;SDS011;64852;48.092;-1.640;2023-11-21T17:48:55;18.17;;;17.17;;
76119;SDS011;64852;48.092;-1.640;2023-11-21T17:51:20;18.07;;;17.07;;
76119;SDS011;64852;48.092;-1.640;2023-11-21T17:53:46;17.75;;;16.75;;
76119;SDS011;64852;48.092;-1.640;2023-11-21T17:56:13;17.47;;;16.47;;
76119;SDS011;64852;48.092;-1.640;2023-11-21T17:58:39;18.40;;;17.30;;
76119;SDS011;64852;48.092;-1.640;2023-11-21T18:01:05;17.90;;;16.90;;
76119;SDS011;64852;48.092;-1.640;2023-11-21T18:03:30;18.17;;;17.10;;
76119;SDS011;64852;48.092;-1.640;2023-11-21T18:05:56;17.73;;;16.73;;
76119;SDS011;64852;48.092;-1.640;2023-11-21T18:08:22;18.52;;;17.42;;
76119;SDS011;64852;48.092;-1.640;2023-11-21T18:10:47;17.50;;;16.50;;
76119;SDS011;64852;48.092;-1.640;2023-11-21T18:13:13;17.73;;;16.73;;
76119;SDS011;64852;48.092;-1.640;2023-11-21T18:15:39;18.90;;;17.80;;
76119;SDS011;64852;48.092;-1.640;2023-11-21T18:18:04;18.98;;;17.83;;
76119;SDS011;64852;48.092;-1.640;2023-11-21T18:20:30;18.10;;;17.00;;
76119;SDS011;64852;48.092;-1.640;2023-11-21T18:22:56;18.90;;;17.70;;
76119;SDS011;64852;48.092;-1.640;2023-11-21T18:25:21;18.10;;;17.00;;
76119;SDS011;64852;48.092;-1.640;2023-11-21T18:27:47;17.50;;;16.50;;
76119;SDS011;64852;48.092;-1.640;2023-11-21T18:30:12;17.70;;;16.70;;
76119;SDS011;64852;48.092;-1.640;2023-11-21T18:32:39;17.23;;;16.23;;
76119;SDS011;64852;48.092;-1.640;2023-11-21T18:35:04;17.23;;;16.23;;
76119;SDS011;64852;48.092;-1.640;2023-11-21T18:37:30;17.38;;;16.38;;
76119;SDS011;64852;48.092;-1.640;2023-11-21T18:39:56;18.83;;;17.73;;
76119;SDS011;64852;48.092;-1.640;2023-11-21T18:42:22;18.15;;;17.15;;
76119;SDS011;64852;48.092;-1.640;2023-11-21T18:44:49;18.83;;;17.73;;
76119;SDS011;64852;48.092;-1.640;2023-11-21T18:47:15;19.20;;;18.00;;
76119;SDS011;64852;48.092;-1.640;2023-11-21T18:49:42;18.17;;;17.17;;
76119;SDS011;64852;48.092;-1.640;2023-11-21T18:52:08;18.55;;;17.45;;
76119;SDS011;64852;48.092;-1.640;2023-11-21T18:54:34;17.92;;;16.90;;
76119;SDS011;64852;48.092;-1.640;2023-11-21T18:57:00;18.60;;;17.50;;
76119;SDS011;64852;48.092;-1.640;2023-11-21T18:59:26;17.90;;;16.90;;
76119;SDS011;64852;48.092;-1.640;2023-11-21T19:01:52;17.85;;;16.85;;
76119;SDS011;64852;48.092;-1.640;2023-11-21T19:04:17;18.37;;;17.27;;
76119;SDS011;64852;48.092;-1.640;2023-11-21T19:06:48;18.65;;;17.45;;
76119;SDS011;64852;48.092;-1.640;2023-11-21T19:09:14;17.80;;;16.80;;
76119;SDS011;64852;48.092;-1.640;2023-11-21T19:11:40;18.00;;;16.95;;
76119;SDS011;64852;48.092;-1.640;2023-11-21T19:14:05;17.90;;;16.90;;
76119;SDS011;64852;48.092;-1.640;2023-11-21T19:16:31;18.27;;;17.27;;
76119;SDS011;64852;48.092;-1.640;2023-11-21T19:18:57;18.10;;;17.10;;
76119;SDS011;64852;48.092;-1.640;2023-11-21T19:21:23;18.30;;;17.30;;
76119;SDS011;64852;48.092;-1.640;2023-11-21T19:26:16;18.27;;;17.27;;
76119;SDS011;64852;48.092;-1.640;2023-11-21T19:28:42;17.73;;;16.73;;
76119;SDS011;64852;48.092;-1.640;2023-11-21T19:31:18;18.70;;;17.60;;
76119;SDS011;64852;48.092;-1.640;2023-11-21T19:33:45;18.15;;;17.15;;
76119;SDS011;64852;48.092;-1.640;2023-11-21T19:36:12;18.48;;;17.38;;
76119;SDS011;64852;48.092;-1.640;2023-11-21T19:38:38;19.33;;;18.13;;
76119;SDS011;64852;48.092;-1.640;2023-11-21T19:41:11;18.75;;;17.65;;
76119;SDS011;64852;48.092;-1.640;2023-11-21T19:43:41;18.73;;;17.63;;
76119;SDS011;64852;48.092;-1.640;2023-11-21T19:46:08;19.27;;;18.17;;
76119;SDS011;64852;48.092;-1.640;2023-11-21T19:48:33;18.53;;;17.53;;
76119;SDS011;64852;48.092;-1.640;2023-11-21T19:51:00;18.17;;;17.17;;
76119;SDS011;64852;48.092;-1.640;2023-11-21T19:53:26;18.05;;;17.05;;
76119;SDS011;64852;48.092;-1.640;2023-11-21T19:55:53;18.63;;;17.50;;
76119;SDS011;64852;48.092;-1.640;2023-11-21T19:58:19;17.67;;;16.67;;
76119;SDS011;64852;48.092;-1.640;2023-11-21T20:00:44;18.00;;;17.00;;
76119;SDS011;64852;48.092;-1.640;2023-11-21T20:03:11;18.52;;;17.48;;
76119;SDS011;64852;48.092;-1.640;2023-11-21T20:05:38;18.50;;;17.40;;
76119;SDS011;64852;48.092;-1.640;2023-11-21T20:08:03;18.60;;;17.50;;
76119;SDS011;64852;48.092;-1.640;2023-11-21T20:10:29;18.85;;;17.75;;
76119;SDS011;64852;48.092;-1.640;2023-11-21T20:12:55;18.63;;;17.53;;
76119;SDS011;64852;48.092;-1.640;2023-11-21T20:15:23;19.00;;;17.80;;
76119;SDS011;64852;48.092;-1.640;2023-11-21T20:17:50;18.85;;;17.65;;
76119;SDS011;64852;48.092;-1.640;2023-11-21T20:20:16;19.40;;;18.13;;
76119;SDS011;64852;48.092;-1.640;2023-11-21T20:22:42;18.92;;;17.83;;
76119;SDS011;64852;48.092;-1.640;2023-11-21T20:25:11;20.10;;;18.90;;
76119;SDS011;64852;48.092;-1.640;2023-11-21T20:27:37;19.42;;;18.33;;
76119;SDS011;64852;48.092;-1.640;2023-11-21T20:30:03;20.00;;;18.80;;
76119;SDS011;64852;48.092;-1.640;2023-11-21T20:32:30;19.15;;;18.05;;
76119;SDS011;64852;48.092;-1.640;2023-11-21T20:37:21;20.02;;;18.83;;
76119;SDS011;64852;48.092;-1.640;2023-11-21T20:39:47;18.77;;;17.67;;
76119;SDS011;64852;48.092;-1.640;2023-11-21T20:42:13;18.80;;;17.70;;
76119;SDS011;64852;48.092;-1.640;2023-11-21T20:44:40;19.02;;;17.92;;
76119;SDS011;64852;48.092;-1.640;2023-11-21T20:47:06;18.63;;;17.52;;
76119;SDS011;64852;48.092;-1.640;2023-11-21T20:49:32;18.55;;;17.45;;
76119;SDS011;64852;48.092;-1.640;2023-11-21T20:51:57;19.02;;;17.92;;
76119;SDS011;64852;48.092;-1.640;2023-11-21T20:54:23;19.27;;;18.17;;
76119;SDS011;64852;48.092;-1.640;2023-11-21T20:56:49;19.98;;;18.77;;
76119;SDS011;64852;48.092;-1.640;2023-11-21T20:59:15;20.08;;;18.88;;
76119;SDS011;64852;48.092;-1.640;2023-11-21T21:01:40;19.47;;;18.33;;
76119;SDS011;64852;48.092;-1.640;2023-11-21T21:04:06;19.17;;;18.07;;
76119;SDS011;64852;48.092;-1.640;2023-11-21T21:06:32;19.70;;;18.50;;
76119;SDS011;64852;48.092;-1.640;2023-11-21T21:08:58;21.42;;;20.02;;
76119;SDS011;64852;48.092;-1.640;2023-11-21T21:11:24;20.95;;;19.65;;
76119;SDS011;64852;48.092;-1.640;2023-11-21T21:13:50;19.55;;;18.35;;
76119;SDS011;64852;48.092;-1.640;2023-11-21T21:16:19;20.40;;;19.20;;
76119;SDS011;64852;48.092;-1.640;2023-11-21T21:18:51;20.25;;;19.05;;
76119;SDS011;64852;48.092;-1.640;2023-11-21T21:21:18;20.08;;;18.88;;
76119;SDS011;64852;48.092;-1.640;2023-11-21T21:23:43;19.50;;;18.30;;
76119;SDS011;64852;48.092;-1.640;2023-11-21T21:26:09;20.47;;;19.23;;
76119;SDS011;64852;48.092;-1.640;2023-11-21T21:28:36;20.98;;;19.77;;
76119;SDS011;64852;48.092;-1.640;2023-11-21T21:31:01;20.70;;;19.50;;
76119;SDS011;64852;48.092;-1.640;2023-11-21T21:48:02;19.83;;;18.63;;
76119;SDS011;64852;48.092;-1.640;2023-11-21T21:50:27;19.70;;;18.50;;
76119;SDS011;64852;48.092;-1.640;2023-11-21T21:52:54;20.35;;;19.15;;
76119;SDS011;64852;48.092;-1.640;2023-11-21T21:55:20;24.08;;;22.55;;
76119;SDS011;64852;48.092;-1.640;2023-11-21T21:57:46;21.00;;;19.70;;
76119;SDS011;64852;48.092;-1.640;2023-11-21T22:00:12;21.58;;;20.08;;
76119;SDS011;64852;48.092;-1.640;2023-11-21T22:17:16;19.27;;;18.13;;
76119;SDS011;64852;48.092;-1.640;2023-11-21T22:19:42;19.20;;;18.10;;
76119;SDS011;64852;48.092;-1.640;2023-11-21T22:22:08;21.63;;;20.27;;
76119;SDS011;64852;48.092;-1.640;2023-11-21T22:24:33;23.23;;;21.73;;
76119;SDS011;64852;48.092;-1.640;2023-11-21T22:26:59;24.02;;;22.52;;
76119;SDS011;64852;48.092;-1.640;2023-11-21T22:29:26;22.52;;;21.23;;
76119;SDS011;64852;48.092;-1.640;2023-11-21T22:31:52;23.55;;;22.08;;
76119;SDS011;64852;48.092;-1.640;2023-11-21T22:34:19;23.33;;;21.92;;
76119;SDS011;64852;48.092;-1.640;2023-11-21T22:36:45;23.75;;;22.35;;
76119;SDS011;64852;48.092;-1.640;2023-11-21T22:39:11;21.05;;;19.75;;
76119;SDS011;64852;48.092;-1.640;2023-11-21T22:41:37;20.70;;;19.00;;
76119;SDS011;64852;48.092;-1.640;2023-11-21T22:44:03;22.30;;;20.50;;
76119;SDS011;64852;48.092;-1.640;2023-11-21T22:46:29;23.48;;;21.98;;
76119;SDS011;64852;48.092;-1.640;2023-11-21T22:48:55;20.48;;;19.17;;
76119;SDS011;64852;48.092;-1.640;2023-11-21T22:51:21;20.42;;;19.23;;
76119;SDS011;64852;48.092;-1.640;2023-11-21T22:53:47;20.77;;;19.47;;
76119;SDS011;64852;48.092;-1.640;2023-11-21T22:56:12;22.50;;;20.80;;
76119;SDS011;64852;48.092;-1.640;2023-11-21T22:58:38;22.40;;;20.90;;
76119;SDS011;64852;48.092;-1.640;2023-11-21T23:01:04;19.75;;;18.63;;
76119;SDS011;64852;48.092;-1.640;2023-11-21T23:03:30;19.10;;;18.00;;
76119;SDS011;64852;48.092;-1.640;2023-11-21T23:05:56;19.73;;;18.52;;
76119;SDS011;64852;48.092;-1.640;2023-11-21T23:08:22;19.15;;;18.05;;
76119;SDS011;64852;48.092;-1.640;2023-11-21T23:10:48;18.48;;;17.40;;
76119;SDS011;64852;48.092;-1.640;2023-11-21T23:13:18;19.42;;;18.33;;
76119;SDS011;64852;48.092;-1.640;2023-11-21T23:15:44;18.88;;;17.77;;
76119;SDS011;64852;48.092;-1.640;2023-11-21T23:18:17;18.80;;;17.70;;
76119;SDS011;64852;48.092;-1.640;2023-11-21T23:20:50;20.40;;;19.10;;
76119;SDS011;64852;48.092;-1.640;2023-11-21T23:23:16;19.58;;;18.38;;
76119;SDS011;64852;48.092;-1.640;2023-11-21T23:25:41;20.20;;;18.92;;
76119;SDS011;64852;48.092;-1.640;2023-11-21T23:28:07;20.87;;;19.47;;
76119;SDS011;64852;48.092;-1.640;2023-11-21T23:30:33;20.60;;;19.40;;
76119;SDS011;64852;48.092;-1.640;2023-11-21T23:32:58;21.27;;;19.97;;
76119;SDS011;64852;48.092;-1.640;2023-11-21T23:35:24;21.70;;;20.50;;
76119;SDS011;64852;48.092;-1.640;2023-11-21T23:37:50;21.70;;;20.40;;
76119;SDS011;64852;48.092;-1.640;2023-11-21T23:40:16;19.90;;;18.70;;
76119;SDS011;64852;48.092;-1.640;2023-11-21T23:42:41;20.50;;;19.30;;
76119;SDS011;64852;48.092;-1.640;2023-11-21T23:45:07;20.00;;;18.80;;
76119;SDS011;64852;48.092;-1.640;2023-11-21T23:47:34;21.23;;;19.92;;
76119;SDS011;64852;48.092;-1.640;2023-11-21T23:50:00;21.00;;;19.70;;
76119;SDS011;64852;48.092;-1.640;2023-11-21T23:52:25;19.80;;;18.63;;
76119;SDS011;64852;48.092;-1.640;2023-11-21T23:54:51;20.77;;;19.58;;
76119;SDS011;64852;48.092;-1.640;2023-11-21T23:57:17;20.92;;;19.63;;
76119;SDS011;64852;48.092;-1.640;2023-11-21T23:59:43;21.35;;;20.05;;
